sensor_id;sensor_type;location;lat;lon;timestamp;pressure;altitude;pressure_sealevel;temperature;humidity
79362;BME280;68830;47.566;19.012;2023-08-30T00:00:50;98766.72;;;17.42;100.00
79362;BME280;68830;47.566;19.012;2023-08-30T00:03:53;98769.78;;;17.45;100.00
79362;BME280;68830;47.566;19.012;2023-08-30T00:06:58;98771.72;;;17.38;100.00
79362;BME280;68830;47.566;19.012;2023-08-30T00:10:00;98775.88;;;17.34;100.00
79362;BME280;68830;47.566;19.012;2023-08-30T00:13:04;98772.00;;;17.30;100.00
79362;BME280;68830;47.566;19.012;2023-08-30T00:16:06;98780.47;;;17.27;100.00
79362;BME280;68830;47.566;19.012;2023-08-30T00:19:08;98778.56;;;17.34;100.00
79362;BME280;68830;47.566;19.012;2023-08-30T00:22:12;98775.47;;;17.30;100.00
79362;BME280;68830;47.566;19.012;2023-08-30T00:25:14;98783.50;;;17.30;100.00
79362;BME280;68830;47.566;19.012;2023-08-30T00:28:17;98777.56;;;17.28;100.00
79362;BME280;68830;47.566;19.012;2023-08-30T00:31:19;98782.09;;;17.28;100.00
79362;BME280;68830;47.566;19.012;2023-08-30T00:34:21;98782.31;;;17.26;100.00
79362;BME280;68830;47.566;19.012;2023-08-30T00:37:25;98785.66;;;17.22;100.00
79362;BME280;68830;47.566;19.012;2023-08-30T00:40:28;98774.38;;;17.20;100.00
79362;BME280;68830;47.566;19.012;2023-08-30T00:43:33;98779.72;;;17.20;100.00
79362;BME280;68830;47.566;19.012;2023-08-30T00:46:35;98782.09;;;17.28;100.00
79362;BME280;68830;47.566;19.012;2023-08-30T00:49:38;98789.56;;;17.44;100.00
79362;BME280;68830;47.566;19.012;2023-08-30T00:52:41;98797.97;;;17.48;100.00
79362;BME280;68830;47.566;19.012;2023-08-30T00:55:44;98800.47;;;17.43;100.00
79362;BME280;68830;47.566;19.012;2023-08-30T00:58:47;98798.94;;;17.35;100.00
79362;BME280;68830;47.566;19.012;2023-08-30T01:01:49;98804.50;;;17.33;100.00
79362;BME280;68830;47.566;19.012;2023-08-30T01:04:52;98798.25;;;17.40;100.00
79362;BME280;68830;47.566;19.012;2023-08-30T01:07:55;98801.38;;;17.37;100.00
79362;BME280;68830;47.566;19.012;2023-08-30T01:11:00;98802.88;;;17.32;100.00
79362;BME280;68830;47.566;19.012;2023-08-30T01:14:06;98787.44;;;17.28;100.00
79362;BME280;68830;47.566;19.012;2023-08-30T01:17:11;98796.97;;;17.24;100.00
79362;BME280;68830;47.566;19.012;2023-08-30T01:20:17;98798.75;;;17.30;100.00
79362;BME280;68830;47.566;19.012;2023-08-30T01:23:32;98796.88;;;17.30;100.00
79362;BME280;68830;47.566;19.012;2023-08-30T01:26:42;98800.47;;;17.24;100.00
79362;BME280;68830;47.566;19.012;2023-08-30T01:29:49;98798.81;;;17.23;100.00
79362;BME280;68830;47.566;19.012;2023-08-30T01:32:52;98787.31;;;17.23;100.00
79362;BME280;68830;47.566;19.012;2023-08-30T01:35:57;98795.31;;;17.23;100.00
79362;BME280;68830;47.566;19.012;2023-08-30T01:39:00;98794.88;;;17.26;100.00
79362;BME280;68830;47.566;19.012;2023-08-30T01:42:04;98797.13;;;17.29;100.00
79362;BME280;68830;47.566;19.012;2023-08-30T01:45:10;98790.94;;;17.28;100.00
79362;BME280;68830;47.566;19.012;2023-08-30T01:48:17;98800.41;;;17.31;100.00
79362;BME280;68830;47.566;19.012;2023-08-30T01:51:20;98798.75;;;17.30;100.00
79362;BME280;68830;47.566;19.012;2023-08-30T01:54:24;98800.00;;;17.27;100.00
79362;BME280;68830;47.566;19.012;2023-08-30T01:57:26;98798.56;;;17.31;100.00
79362;BME280;68830;47.566;19.012;2023-08-30T02:00:29;98809.25;;;17.31;100.00
79362;BME280;68830;47.566;19.012;2023-08-30T02:03:31;98804.28;;;17.35;100.00
79362;BME280;68830;47.566;19.012;2023-08-30T02:06:39;98800.78;;;17.35;100.00
79362;BME280;68830;47.566;19.012;2023-08-30T02:09:48;98806.72;;;17.37;100.00
79362;BME280;68830;47.566;19.012;2023-08-30T02:12:53;98804.44;;;17.40;100.00
79362;BME280;68830;47.566;19.012;2023-08-30T02:16:00;98808.16;;;17.39;100.00
79362;BME280;68830;47.566;19.012;2023-08-30T02:19:03;98810.22;;;17.37;100.00
79362;BME280;68830;47.566;19.012;2023-08-30T02:22:06;98815.56;;;17.37;100.00
79362;BME280;68830;47.566;19.012;2023-08-30T02:25:08;98810.00;;;17.39;100.00
79362;BME280;68830;47.566;19.012;2023-08-30T02:28:11;98813.94;;;17.36;100.00
79362;BME280;68830;47.566;19.012;2023-08-30T02:31:15;98815.56;;;17.37;100.00
79362;BME280;68830;47.566;19.012;2023-08-30T02:34:18;98820.13;;;17.37;100.00
79362;BME280;68830;47.566;19.012;2023-08-30T02:37:20;98827.53;;;17.35;100.00
79362;BME280;68830;47.566;19.012;2023-08-30T02:40:22;98816.84;;;17.35;100.00
79362;BME280;68830;47.566;19.012;2023-08-30T02:43:24;98818.47;;;17.36;100.00
79362;BME280;68830;47.566;19.012;2023-08-30T02:46:28;98826.13;;;17.32;100.00
79362;BME280;68830;47.566;19.012;2023-08-30T02:49:30;98836.03;;;17.31;100.00
79362;BME280;68830;47.566;19.012;2023-08-30T02:52:33;98817.69;;;17.28;100.00
79362;BME280;68830;47.566;19.012;2023-08-30T02:55:35;98820.38;;;17.28;100.00
79362;BME280;68830;47.566;19.012;2023-08-30T02:58:38;98823.88;;;17.29;100.00
79362;BME280;68830;47.566;19.012;2023-08-30T03:01:42;98818.38;;;17.24;100.00
79362;BME280;68830;47.566;19.012;2023-08-30T03:04:44;98820.81;;;17.25;100.00
79362;BME280;68830;47.566;19.012;2023-08-30T03:07:46;98832.13;;;17.27;100.00
79362;BME280;68830;47.566;19.012;2023-08-30T03:10:48;98821.41;;;17.27;100.00
79362;BME280;68830;47.566;19.012;2023-08-30T03:13:50;98829.00;;;17.30;100.00
79362;BME280;68830;47.566;19.012;2023-08-30T03:16:54;98816.28;;;17.26;100.00
79362;BME280;68830;47.566;19.012;2023-08-30T03:19:56;98829.63;;;17.32;100.00
79362;BME280;68830;47.566;19.012;2023-08-30T03:22:58;98823.66;;;17.30;100.00
79362;BME280;68830;47.566;19.012;2023-08-30T03:26:07;98827.78;;;17.33;100.00
79362;BME280;68830;47.566;19.012;2023-08-30T03:29:09;98833.06;;;17.40;100.00
79362;BME280;68830;47.566;19.012;2023-08-30T03:32:16;98825.25;;;17.38;100.00
79362;BME280;68830;47.566;19.012;2023-08-30T03:35:18;98826.88;;;17.39;100.00
79362;BME280;68830;47.566;19.012;2023-08-30T03:38:22;98836.75;;;17.39;100.00
79362;BME280;68830;47.566;19.012;2023-08-30T03:41:25;98833.72;;;17.35;100.00
79362;BME280;68830;47.566;19.012;2023-08-30T03:44:28;98836.31;;;17.42;100.00
79362;BME280;68830;47.566;19.012;2023-08-30T03:47:31;98830.00;;;17.36;100.00
79362;BME280;68830;47.566;19.012;2023-08-30T03:50:34;98829.19;;;17.36;100.00
79362;BME280;68830;47.566;19.012;2023-08-30T03:53:36;98837.66;;;17.32;100.00
79362;BME280;68830;47.566;19.012;2023-08-30T03:56:38;98837.88;;;17.31;100.00
79362;BME280;68830;47.566;19.012;2023-08-30T03:59:40;98844.25;;;17.30;100.00
79362;BME280;68830;47.566;19.012;2023-08-30T04:02:44;98849.19;;;17.33;100.00
79362;BME280;68830;47.566;19.012;2023-08-30T04:05:46;98854.31;;;17.35;100.00
79362;BME280;68830;47.566;19.012;2023-08-30T04:08:48;98851.84;;;17.33;100.00
79362;BME280;68830;47.566;19.012;2023-08-30T04:11:52;98846.44;;;17.40;100.00
79362;BME280;68830;47.566;19.012;2023-08-30T04:14:54;98846.56;;;17.45;100.00
79362;BME280;68830;47.566;19.012;2023-08-30T04:17:58;98853.41;;;17.41;100.00
79362;BME280;68830;47.566;19.012;2023-08-30T04:21:01;98847.84;;;17.42;100.00
79362;BME280;68830;47.566;19.012;2023-08-30T04:24:05;98854.00;;;17.43;100.00
79362;BME280;68830;47.566;19.012;2023-08-30T04:27:07;98854.00;;;17.43;100.00
79362;BME280;68830;47.566;19.012;2023-08-30T04:30:10;98856.91;;;17.41;100.00
79362;BME280;68830;47.566;19.012;2023-08-30T04:33:14;98868.22;;;17.43;100.00
79362;BME280;68830;47.566;19.012;2023-08-30T04:36:17;98873.34;;;17.45;100.00
79362;BME280;68830;47.566;19.012;2023-08-30T04:39:19;98882.59;;;17.49;100.00
79362;BME280;68830;47.566;19.012;2023-08-30T04:42:22;98889.16;;;17.53;100.00
79362;BME280;68830;47.566;19.012;2023-08-30T04:45:24;98883.34;;;17.56;100.00
79362;BME280;68830;47.566;19.012;2023-08-30T04:48:28;98879.84;;;17.55;100.00
79362;BME280;68830;47.566;19.012;2023-08-30T04:51:33;98882.47;;;17.62;100.00
79362;BME280;68830;47.566;19.012;2023-08-30T04:54:35;98876.69;;;17.65;100.00
79362;BME280;68830;47.566;19.012;2023-08-30T04:57:37;98877.94;;;17.62;100.00
79362;BME280;68830;47.566;19.012;2023-08-30T05:00:39;98879.13;;;17.67;100.00
79362;BME280;68830;47.566;19.012;2023-08-30T05:03:42;98878.94;;;17.68;100.00
79362;BME280;68830;47.566;19.012;2023-08-30T05:06:44;98876.63;;;17.72;100.00
79362;BME280;68830;47.566;19.012;2023-08-30T05:09:47;98876.41;;;17.73;100.00
79362;BME280;68830;47.566;19.012;2023-08-30T05:12:49;98880.50;;;17.76;100.00
79362;BME280;68830;47.566;19.012;2023-08-30T05:15:53;98889.53;;;17.81;100.00
79362;BME280;68830;47.566;19.012;2023-08-30T05:18:57;98892.56;;;17.85;100.00
79362;BME280;68830;47.566;19.012;2023-08-30T05:21:59;98880.69;;;17.81;100.00
79362;BME280;68830;47.566;19.012;2023-08-30T05:25:01;98880.31;;;17.77;100.00
79362;BME280;68830;47.566;19.012;2023-08-30T05:28:03;98874.56;;;17.74;100.00
79362;BME280;68830;47.566;19.012;2023-08-30T05:31:05;98873.09;;;17.78;100.00
79362;BME280;68830;47.566;19.012;2023-08-30T05:34:09;98880.31;;;17.77;100.00
79362;BME280;68830;47.566;19.012;2023-08-30T05:41:44;98895.25;;;17.85;100.00
79362;BME280;68830;47.566;19.012;2023-08-30T05:44:53;98892.50;;;17.91;100.00
79362;BME280;68830;47.566;19.012;2023-08-30T05:48:01;98890.59;;;17.99;100.00
79362;BME280;68830;47.566;19.012;2023-08-30T05:51:05;98893.84;;;18.01;100.00
79362;BME280;68830;47.566;19.012;2023-08-30T05:54:07;98893.25;;;17.99;100.00
79362;BME280;68830;47.566;19.012;2023-08-30T05:57:09;98898.03;;;17.97;100.00
79362;BME280;68830;47.566;19.012;2023-08-30T06:00:12;98899.91;;;17.96;100.00
79362;BME280;68830;47.566;19.012;2023-08-30T06:03:15;98842.50;;;16.92;100.00
79362;BME280;68830;47.566;19.012;2023-08-30T06:06:18;98840.44;;;16.56;100.00
79362;BME280;68830;47.566;19.012;2023-08-30T06:09:20;98835.91;;;16.57;100.00
79362;BME280;68830;47.566;19.012;2023-08-30T06:12:22;98841.03;;;16.58;100.00
79362;BME280;68830;47.566;19.012;2023-08-30T06:15:24;98837.13;;;16.61;100.00
79362;BME280;68830;47.566;19.012;2023-08-30T06:18:31;98836.94;;;16.56;100.00
79362;BME280;68830;47.566;19.012;2023-08-30T06:21:37;98833.72;;;16.79;100.00
79362;BME280;68830;47.566;19.012;2023-08-30T06:24:39;98860.84;;;16.82;100.00
79362;BME280;68830;47.566;19.012;2023-08-30T06:27:42;98862.38;;;16.71;100.00
79362;BME280;68830;47.566;19.012;2023-08-30T06:30:45;98899.75;;;16.78;100.00
79362;BME280;68830;47.566;19.012;2023-08-30T06:33:47;98909.28;;;17.30;100.00
79362;BME280;68830;47.566;19.012;2023-08-30T06:36:51;98912.50;;;17.71;100.00
79362;BME280;68830;47.566;19.012;2023-08-30T06:39:53;98919.47;;;17.97;100.00
79362;BME280;68830;47.566;19.012;2023-08-30T06:42:57;98928.06;;;18.24;100.00
79362;BME280;68830;47.566;19.012;2023-08-30T06:46:00;98928.63;;;18.26;100.00
79362;BME280;68830;47.566;19.012;2023-08-30T06:49:03;98933.91;;;18.32;100.00
79362;BME280;68830;47.566;19.012;2023-08-30T06:52:06;98940.91;;;18.33;100.00
79362;BME280;68830;47.566;19.012;2023-08-30T06:55:09;98929.09;;;18.41;100.00
79362;BME280;68830;47.566;19.012;2023-08-30T06:58:11;98923.72;;;18.41;100.00
79362;BME280;68830;47.566;19.012;2023-08-30T07:01:13;98914.78;;;18.47;100.00
79362;BME280;68830;47.566;19.012;2023-08-30T07:04:15;98903.09;;;17.61;100.00
79362;BME280;68830;47.566;19.012;2023-08-30T07:07:18;98903.69;;;17.39;100.00
79362;BME280;68830;47.566;19.012;2023-08-30T07:10:20;98898.38;;;17.57;100.00
79362;BME280;68830;47.566;19.012;2023-08-30T07:13:23;98898.69;;;17.67;100.00
79362;BME280;68830;47.566;19.012;2023-08-30T07:16:25;98916.22;;;17.70;100.00
79362;BME280;68830;47.566;19.012;2023-08-30T07:19:26;98912.53;;;17.64;100.00
79362;BME280;68830;47.566;19.012;2023-08-30T07:22:30;98910.56;;;17.53;100.00
79362;BME280;68830;47.566;19.012;2023-08-30T07:25:32;98901.78;;;17.71;100.00
79362;BME280;68830;47.566;19.012;2023-08-30T07:28:38;98914.38;;;17.63;100.00
79362;BME280;68830;47.566;19.012;2023-08-30T07:31:40;98913.13;;;17.66;100.00
79362;BME280;68830;47.566;19.012;2023-08-30T07:34:43;98908.63;;;17.60;100.00
79362;BME280;68830;47.566;19.012;2023-08-30T07:37:46;98920.91;;;17.74;100.00
79362;BME280;68830;47.566;19.012;2023-08-30T07:40:48;98924.81;;;17.97;100.00
79362;BME280;68830;47.566;19.012;2023-08-30T07:43:50;98931.59;;;17.74;100.00
79362;BME280;68830;47.566;19.012;2023-08-30T07:46:52;98936.44;;;17.59;100.00
79362;BME280;68830;47.566;19.012;2023-08-30T07:49:54;98935.09;;;17.50;100.00
79362;BME280;68830;47.566;19.012;2023-08-30T07:52:58;98941.56;;;17.60;100.00
79362;BME280;68830;47.566;19.012;2023-08-30T07:56:00;98934.09;;;17.44;100.00
79362;BME280;68830;47.566;19.012;2023-08-30T07:59:02;98952.66;;;17.71;100.00
79362;BME280;68830;47.566;19.012;2023-08-30T08:02:05;98952.59;;;17.46;100.00
79362;BME280;68830;47.566;19.012;2023-08-30T08:05:09;98943.97;;;17.44;100.00
79362;BME280;68830;47.566;19.012;2023-08-30T08:08:12;98956.00;;;17.35;100.00
79362;BME280;68830;47.566;19.012;2023-08-30T08:11:14;98948.94;;;17.40;100.00
79362;BME280;68830;47.566;19.012;2023-08-30T08:14:17;98941.81;;;17.59;100.00
79362;BME280;68830;47.566;19.012;2023-08-30T08:17:19;98955.66;;;17.81;100.00
79362;BME280;68830;47.566;19.012;2023-08-30T08:20:21;98955.00;;;17.85;100.00
79362;BME280;68830;47.566;19.012;2023-08-30T08:23:25;98952.91;;;18.12;100.00
79362;BME280;68830;47.566;19.012;2023-08-30T08:26:27;98953.59;;;18.26;100.00
79362;BME280;68830;47.566;19.012;2023-08-30T08:29:29;98957.16;;;18.38;100.00
79362;BME280;68830;47.566;19.012;2023-08-30T08:32:31;98957.00;;;18.33;100.00
79362;BME280;68830;47.566;19.012;2023-08-30T08:35:33;98955.88;;;18.41;100.00
79362;BME280;68830;47.566;19.012;2023-08-30T08:38:37;98962.56;;;18.32;100.00
79362;BME280;68830;47.566;19.012;2023-08-30T08:41:41;98958.72;;;18.46;100.00
79362;BME280;68830;47.566;19.012;2023-08-30T08:44:46;98962.34;;;18.51;100.00
79362;BME280;68830;47.566;19.012;2023-08-30T08:47:49;98956.16;;;18.51;100.00
79362;BME280;68830;47.566;19.012;2023-08-30T08:50:51;98954.69;;;18.37;100.00
79362;BME280;68830;47.566;19.012;2023-08-30T08:54:02;98960.94;;;18.31;100.00
79362;BME280;68830;47.566;19.012;2023-08-30T08:57:05;98951.25;;;18.48;100.00
79362;BME280;68830;47.566;19.012;2023-08-30T09:00:13;98961.84;;;18.61;100.00
79362;BME280;68830;47.566;19.012;2023-08-30T09:03:15;98971.31;;;18.64;100.00
79362;BME280;68830;47.566;19.012;2023-08-30T09:06:18;98964.75;;;18.41;100.00
79362;BME280;68830;47.566;19.012;2023-08-30T09:09:22;98964.50;;;18.61;100.00
79362;BME280;68830;47.566;19.012;2023-08-30T09:12:24;98964.75;;;18.41;100.00
79362;BME280;68830;47.566;19.012;2023-08-30T09:15:31;98975.25;;;18.61;100.00
79362;BME280;68830;47.566;19.012;2023-08-30T09:18:33;98973.47;;;18.55;100.00
79362;BME280;68830;47.566;19.012;2023-08-30T09:21:35;98972.41;;;18.93;100.00
79362;BME280;68830;47.566;19.012;2023-08-30T09:24:39;98978.75;;;18.80;100.00
79362;BME280;68830;47.566;19.012;2023-08-30T09:27:41;98988.44;;;18.81;100.00
79362;BME280;68830;47.566;19.012;2023-08-30T09:30:49;98984.66;;;18.70;100.00
79362;BME280;68830;47.566;19.012;2023-08-30T09:33:57;98991.34;;;18.61;100.00
79362;BME280;68830;47.566;19.012;2023-08-30T09:37:00;98984.91;;;18.99;100.00
79362;BME280;68830;47.566;19.012;2023-08-30T09:40:09;98978.09;;;18.85;100.00
79362;BME280;68830;47.566;19.012;2023-08-30T09:43:12;98979.34;;;19.00;100.00
79362;BME280;68830;47.566;19.012;2023-08-30T09:46:15;98987.09;;;19.20;100.00
79362;BME280;68830;47.566;19.012;2023-08-30T09:49:19;98990.94;;;18.94;100.00
79362;BME280;68830;47.566;19.012;2023-08-30T09:52:24;98994.94;;;19.22;100.00
79362;BME280;68830;47.566;19.012;2023-08-30T09:55:29;98991.06;;;19.18;100.00
79362;BME280;68830;47.566;19.012;2023-08-30T09:58:32;98997.69;;;19.45;100.00
79362;BME280;68830;47.566;19.012;2023-08-30T10:01:35;98998.44;;;19.22;100.00
79362;BME280;68830;47.566;19.012;2023-08-30T10:04:38;99014.34;;;19.35;100.00
79362;BME280;68830;47.566;19.012;2023-08-30T10:07:43;99013.00;;;19.15;100.00
79362;BME280;68830;47.566;19.012;2023-08-30T10:10:49;99008.25;;;19.28;100.00
79362;BME280;68830;47.566;19.012;2023-08-30T10:13:52;99012.78;;;19.16;100.00
79362;BME280;68830;47.566;19.012;2023-08-30T10:17:01;98998.13;;;19.30;100.00
79362;BME280;68830;47.566;19.012;2023-08-30T10:20:05;99001.47;;;19.26;100.00
79362;BME280;68830;47.566;19.012;2023-08-30T10:23:10;98995.31;;;19.37;100.00
79362;BME280;68830;47.566;19.012;2023-08-30T10:26:15;99007.66;;;19.26;100.00
79362;BME280;68830;47.566;19.012;2023-08-30T10:29:18;99009.53;;;19.26;100.00
79362;BME280;68830;47.566;19.012;2023-08-30T10:32:21;99007.47;;;19.39;100.00
79362;BME280;68830;47.566;19.012;2023-08-30T10:35:25;99002.69;;;19.41;100.00
79362;BME280;68830;47.566;19.012;2023-08-30T10:38:28;99002.22;;;19.86;100.00
79362;BME280;68830;47.566;19.012;2023-08-30T10:41:31;98991.81;;;19.66;100.00
79362;BME280;68830;47.566;19.012;2023-08-30T10:44:33;98999.06;;;19.66;100.00
79362;BME280;68830;47.566;19.012;2023-08-30T10:47:42;98986.00;;;20.16;100.00
79362;BME280;68830;47.566;19.012;2023-08-30T10:50:44;98994.28;;;20.62;100.00
79362;BME280;68830;47.566;19.012;2023-08-30T10:53:55;98992.06;;;20.70;99.68
79362;BME280;68830;47.566;19.012;2023-08-30T10:56:58;98988.75;;;20.80;100.00
79362;BME280;68830;47.566;19.012;2023-08-30T11:00:07;98992.50;;;20.67;100.00
79362;BME280;68830;47.566;19.012;2023-08-30T11:03:10;98989.28;;;20.53;99.34
79362;BME280;68830;47.566;19.012;2023-08-30T11:06:13;98994.31;;;20.50;100.00
79362;BME280;68830;47.566;19.012;2023-08-30T11:09:16;98977.69;;;21.33;100.00
79362;BME280;68830;47.566;19.012;2023-08-30T11:12:23;98983.91;;;21.22;94.78
79362;BME280;68830;47.566;19.012;2023-08-30T11:15:26;98979.91;;;21.53;98.47
79362;BME280;68830;47.566;19.012;2023-08-30T11:18:28;98968.31;;;21.24;96.61
79362;BME280;68830;47.566;19.012;2023-08-30T11:21:30;98985.22;;;21.19;99.18
79362;BME280;68830;47.566;19.012;2023-08-30T11:24:34;98980.41;;;21.22;96.73
79362;BME280;68830;47.566;19.012;2023-08-30T11:27:37;98979.00;;;21.19;97.42
79362;BME280;68830;47.566;19.012;2023-08-30T11:30:40;98979.22;;;21.01;98.32
79362;BME280;68830;47.566;19.012;2023-08-30T11:33:50;98986.72;;;20.99;98.41
79362;BME280;68830;47.566;19.012;2023-08-30T11:36:52;98964.72;;;21.30;93.98
79362;BME280;68830;47.566;19.012;2023-08-30T11:39:55;98975.28;;;21.82;97.22
79362;BME280;68830;47.566;19.012;2023-08-30T11:43:00;98960.91;;;21.14;94.91
79362;BME280;68830;47.566;19.012;2023-08-30T11:46:03;98980.00;;;21.58;93.56
79362;BME280;68830;47.566;19.012;2023-08-30T11:49:05;98974.03;;;21.56;95.17
79362;BME280;68830;47.566;19.012;2023-08-30T11:52:07;98965.13;;;21.72;99.56
79362;BME280;68830;47.566;19.012;2023-08-30T11:55:09;98974.47;;;21.65;93.77
79362;BME280;68830;47.566;19.012;2023-08-30T11:58:13;98983.78;;;21.29;93.83
79362;BME280;68830;47.566;19.012;2023-08-30T12:01:15;98984.94;;;21.33;95.23
79362;BME280;68830;47.566;19.012;2023-08-30T12:04:17;98982.34;;;20.98;95.87
79362;BME280;68830;47.566;19.012;2023-08-30T12:07:24;98966.44;;;20.96;96.27
79362;BME280;68830;47.566;19.012;2023-08-30T12:10:28;98983.81;;;21.17;96.74
79362;BME280;68830;47.566;19.012;2023-08-30T12:13:33;98976.59;;;21.06;94.06
79362;BME280;68830;47.566;19.012;2023-08-30T12:16:36;98975.81;;;21.34;96.07
79362;BME280;68830;47.566;19.012;2023-08-30T12:19:38;98985.19;;;21.31;94.63
79362;BME280;68830;47.566;19.012;2023-08-30T12:22:42;98990.84;;;21.18;94.13
79362;BME280;68830;47.566;19.012;2023-08-30T12:25:44;98980.50;;;21.27;94.16
79362;BME280;68830;47.566;19.012;2023-08-30T12:28:47;98979.34;;;20.94;94.78
79362;BME280;68830;47.566;19.012;2023-08-30T12:31:49;98980.41;;;20.93;96.97
79362;BME280;68830;47.566;19.012;2023-08-30T12:34:51;98972.16;;;21.57;94.32
79362;BME280;68830;47.566;19.012;2023-08-30T12:37:53;98969.72;;;21.72;90.62
79362;BME280;68830;47.566;19.012;2023-08-30T12:40:56;98968.91;;;21.71;90.71
79362;BME280;68830;47.566;19.012;2023-08-30T12:44:00;98968.09;;;22.21;86.11
79362;BME280;68830;47.566;19.012;2023-08-30T12:47:03;98961.97;;;21.75;89.57
79362;BME280;68830;47.566;19.012;2023-08-30T12:50:07;98978.75;;;20.92;94.66
79362;BME280;68830;47.566;19.012;2023-08-30T12:53:09;98973.53;;;20.85;95.36
79362;BME280;68830;47.566;19.012;2023-08-30T12:56:12;98956.25;;;20.70;94.71
79362;BME280;68830;47.566;19.012;2023-08-30T12:59:15;98950.06;;;20.69;97.79
79362;BME280;68830;47.566;19.012;2023-08-30T13:02:17;98953.63;;;20.46;96.58
79362;BME280;68830;47.566;19.012;2023-08-30T13:05:20;98951.84;;;20.52;95.49
79362;BME280;68830;47.566;19.012;2023-08-30T13:08:23;98945.88;;;20.50;96.70
79362;BME280;68830;47.566;19.012;2023-08-30T13:11:25;98939.25;;;21.09;97.21
79362;BME280;68830;47.566;19.012;2023-08-30T13:14:31;98945.50;;;21.27;92.44
79362;BME280;68830;47.566;19.012;2023-08-30T13:17:33;98953.22;;;21.23;92.38
79362;BME280;68830;47.566;19.012;2023-08-30T13:20:38;98945.22;;;21.57;89.50
79362;BME280;68830;47.566;19.012;2023-08-30T13:23:41;98941.69;;;21.56;89.28
79362;BME280;68830;47.566;19.012;2023-08-30T13:26:43;98943.97;;;21.31;90.88
79362;BME280;68830;47.566;19.012;2023-08-30T13:29:48;98957.53;;;21.07;91.06
79362;BME280;68830;47.566;19.012;2023-08-30T13:32:51;98967.88;;;20.99;93.83
79362;BME280;68830;47.566;19.012;2023-08-30T13:35:53;98968.03;;;20.80;94.53
79362;BME280;68830;47.566;19.012;2023-08-30T13:38:55;98964.72;;;20.90;91.41
79362;BME280;68830;47.566;19.012;2023-08-30T13:41:58;98976.84;;;20.64;91.72
79362;BME280;68830;47.566;19.012;2023-08-30T13:45:02;98974.06;;;20.59;92.17
79362;BME280;68830;47.566;19.012;2023-08-30T13:48:05;98978.16;;;20.62;94.04
79362;BME280;68830;47.566;19.012;2023-08-30T13:51:07;98975.78;;;20.65;93.61
79362;BME280;68830;47.566;19.012;2023-08-30T13:54:09;98961.22;;;20.38;94.68
79362;BME280;68830;47.566;19.012;2023-08-30T13:57:12;98968.91;;;20.98;95.20
79362;BME280;68830;47.566;19.012;2023-08-30T14:00:16;98967.44;;;21.18;91.48
79362;BME280;68830;47.566;19.012;2023-08-30T14:03:20;98962.13;;;21.24;91.92
79362;BME280;68830;47.566;19.012;2023-08-30T14:06:22;98966.13;;;20.93;91.46
79362;BME280;68830;47.566;19.012;2023-08-30T14:09:24;98965.00;;;20.77;94.28
79362;BME280;68830;47.566;19.012;2023-08-30T14:12:27;98961.34;;;20.54;94.65
79362;BME280;68830;47.566;19.012;2023-08-30T14:15:31;98976.31;;;20.15;95.69
79362;BME280;68830;47.566;19.012;2023-08-30T14:18:34;98978.31;;;20.08;97.63
79362;BME280;68830;47.566;19.012;2023-08-30T14:21:36;98972.56;;;19.81;97.18
79362;BME280;68830;47.566;19.012;2023-08-30T14:24:38;98980.75;;;19.86;97.17
79362;BME280;68830;47.566;19.012;2023-08-30T14:28:00;98972.09;;;19.84;98.24
79362;BME280;68830;47.566;19.012;2023-08-30T14:31:06;98989.28;;;19.83;98.01
79362;BME280;68830;47.566;19.012;2023-08-30T14:34:09;98992.44;;;19.92;98.16
79362;BME280;68830;47.566;19.012;2023-08-30T14:37:12;98980.63;;;19.93;99.24
79362;BME280;68830;47.566;19.012;2023-08-30T14:40:14;98986.72;;;20.00;100.00
79362;BME280;68830;47.566;19.012;2023-08-30T14:43:17;98983.91;;;19.83;98.93
79362;BME280;68830;47.566;19.012;2023-08-30T14:46:21;98989.28;;;19.95;98.14
79362;BME280;68830;47.566;19.012;2023-08-30T14:49:25;98990.34;;;19.94;97.22
79362;BME280;68830;47.566;19.012;2023-08-30T14:52:28;99001.03;;;19.70;98.74
79362;BME280;68830;47.566;19.012;2023-08-30T14:55:30;99002.66;;;19.60;99.14
79362;BME280;68830;47.566;19.012;2023-08-30T14:58:33;99005.03;;;19.80;97.86
79362;BME280;68830;47.566;19.012;2023-08-30T15:01:39;99004.44;;;19.66;98.54
79362;BME280;68830;47.566;19.012;2023-08-30T15:04:42;99015.13;;;19.54;99.20
79362;BME280;68830;47.566;19.012;2023-08-30T15:07:44;99018.41;;;19.56;100.00
79362;BME280;68830;47.566;19.012;2023-08-30T15:10:47;99013.44;;;19.41;100.00
79362;BME280;68830;47.566;19.012;2023-08-30T15:13:49;99014.94;;;19.37;100.00
79362;BME280;68830;47.566;19.012;2023-08-30T15:16:53;99006.66;;;19.39;100.00
79362;BME280;68830;47.566;19.012;2023-08-30T15:19:55;99006.38;;;19.29;100.00
79362;BME280;68830;47.566;19.012;2023-08-30T15:22:58;99006.41;;;19.40;100.00
79362;BME280;68830;47.566;19.012;2023-08-30T15:26:03;99007.41;;;19.46;100.00
79362;BME280;68830;47.566;19.012;2023-08-30T15:29:06;99005.38;;;19.41;100.00
79362;BME280;68830;47.566;19.012;2023-08-30T15:32:10;99000.19;;;19.28;100.00
79362;BME280;68830;47.566;19.012;2023-08-30T15:35:13;99003.50;;;19.12;100.00
79362;BME280;68830;47.566;19.012;2023-08-30T15:38:16;98990.03;;;19.19;100.00
79362;BME280;68830;47.566;19.012;2023-08-30T15:41:18;99008.28;;;19.10;100.00
79362;BME280;68830;47.566;19.012;2023-08-30T15:44:21;99011.34;;;19.14;100.00
79362;BME280;68830;47.566;19.012;2023-08-30T15:47:25;99010.81;;;19.23;100.00
79362;BME280;68830;47.566;19.012;2023-08-30T15:50:28;99017.22;;;19.22;100.00
79362;BME280;68830;47.566;19.012;2023-08-30T15:53:31;99018.56;;;19.13;100.00